createdAt,value
2022-11-27T00:00:38.438Z,19.70
2022-11-27T00:03:09.074Z,19.70
2022-11-27T00:05:38.404Z,19.60
2022-11-27T00:08:07.580Z,19.60
2022-11-27T00:10:36.904Z,19.60
2022-11-27T00:13:06.042Z,19.60
2022-11-27T00:15:35.243Z,19.60
2022-11-27T00:18:04.454Z,19.60
2022-11-27T00:20:35.350Z,19.60
2022-11-27T00:23:04.621Z,19.60
2022-11-27T00:25:34.003Z,19.60
2022-11-27T00:28:03.125Z,19.60
2022-11-27T00:30:32.765Z,19.60
2022-11-27T00:33:01.946Z,19.50
2022-11-27T00:35:31.184Z,19.50
2022-11-27T00:38:01.785Z,19.50
2022-11-27T00:40:30.897Z,19.50
2022-11-27T00:43:01.572Z,19.50
2022-11-27T00:45:30.717Z,19.50
2022-11-27T00:47:59.998Z,19.50
2022-11-27T00:50:32.009Z,19.50
2022-11-27T00:53:02.742Z,19.50
2022-11-27T00:55:31.947Z,19.50
2022-11-27T00:58:01.217Z,19.50
2022-11-27T01:00:30.316Z,19.40
2022-11-27T01:02:59.524Z,19.40
2022-11-27T01:05:28.726Z,19.40
2022-11-27T01:07:57.883Z,19.40
2022-11-27T01:10:28.456Z,19.40
2022-11-27T01:12:57.608Z,19.40
2022-11-27T01:15:26.760Z,19.40
2022-11-27T01:17:55.913Z,19.40
2022-11-27T01:20:25.230Z,19.40
2022-11-27T01:22:54.363Z,19.40
2022-11-27T01:25:26.867Z,19.40
2022-11-27T01:27:57.878Z,19.40
2022-11-27T01:30:27.021Z,19.40
2022-11-27T01:32:56.229Z,19.40
2022-11-27T01:35:25.321Z,19.30
2022-11-27T01:37:54.469Z,19.30
2022-11-27T01:40:24.007Z,19.30
2022-11-27T01:42:53.134Z,19.30
2022-11-27T01:45:24.449Z,19.30
2022-11-27T01:47:56.424Z,19.30
2022-11-27T01:50:30.559Z,19.30
2022-11-27T01:53:04.282Z,19.30
2022-11-27T01:55:36.510Z,19.30
2022-11-27T01:58:09.558Z,19.30
2022-11-27T02:00:40.629Z,19.30
2022-11-27T02:03:09.987Z,19.30
2022-11-27T02:05:39.356Z,19.30
2022-11-27T02:08:11.506Z,19.20
2022-11-27T02:10:49.499Z,19.20
2022-11-27T02:13:27.212Z,19.20
2022-11-27T02:16:10.217Z,19.20
2022-11-27T02:18:49.866Z,19.20
2022-11-27T02:21:27.626Z,19.20
2022-11-27T02:24:34.492Z,19.20
2022-11-27T02:27:31.478Z,19.20
2022-11-27T02:30:04.063Z,19.20
2022-11-27T02:32:38.360Z,19.10
2022-11-27T02:35:15.978Z,19.10
2022-11-27T02:37:48.965Z,19.20
2022-11-27T02:40:23.093Z,19.10
2022-11-27T02:42:57.377Z,19.20
2022-11-27T02:45:32.789Z,19.10
2022-11-27T02:48:01.961Z,19.10
2022-11-27T02:50:33.501Z,19.10
2022-11-27T02:53:07.264Z,19.10
2022-11-27T02:55:39.986Z,19.10
2022-11-27T02:58:14.502Z,19.10
2022-11-27T03:00:46.515Z,19.10
2022-11-27T03:03:21.366Z,19.10
2022-11-27T03:05:54.238Z,19.10
2022-11-27T03:08:30.001Z,19.10
2022-11-27T03:11:03.962Z,19.10
2022-11-27T03:13:38.524Z,19.10
2022-11-27T03:16:15.984Z,19.00
2022-11-27T03:18:55.085Z,19.00
2022-11-27T03:21:31.750Z,19.00
2022-11-27T03:24:01.378Z,19.00
2022-11-27T03:26:30.589Z,19.00
2022-11-27T03:29:01.714Z,19.00
2022-11-27T03:31:33.220Z,19.00
2022-11-27T03:34:03.247Z,19.00
2022-11-27T03:36:32.366Z,19.00
2022-11-27T03:39:01.732Z,19.00
2022-11-27T03:41:40.342Z,19.00
2022-11-27T03:44:25.676Z,19.00
2022-11-27T03:47:06.760Z,19.00
2022-11-27T03:49:46.045Z,18.90
2022-11-27T03:52:24.817Z,19.00
2022-11-27T03:55:01.099Z,18.90
2022-11-27T03:57:35.316Z,18.90
2022-11-27T04:00:09.357Z,18.90
2022-11-27T04:02:45.254Z,18.90
2022-11-27T04:05:15.526Z,18.90
2022-11-27T04:07:44.946Z,18.90
2022-11-27T04:10:15.162Z,18.90
2022-11-27T04:12:44.556Z,18.90
2022-11-27T04:15:14.518Z,18.90
2022-11-27T04:17:45.276Z,18.90
2022-11-27T04:20:15.215Z,18.90
2022-11-27T04:22:44.315Z,18.90
2022-11-27T04:25:13.487Z,18.90
2022-11-27T04:27:42.653Z,18.90
2022-11-27T04:30:12.779Z,18.90
2022-11-27T04:32:42.022Z,18.90
2022-11-27T04:35:13.014Z,18.90
2022-11-27T04:37:42.351Z,18.80
2022-11-27T04:40:12.467Z,18.80
2022-11-27T04:42:41.739Z,18.80
2022-11-27T04:45:11.992Z,18.80
2022-11-27T04:47:41.326Z,18.80
2022-11-27T04:50:13.065Z,18.80
2022-11-27T04:52:42.174Z,18.80
2022-11-27T04:55:11.929Z,18.80
2022-11-27T04:57:41.077Z,18.80
2022-11-27T05:00:11.353Z,18.80
2022-11-27T05:02:40.828Z,18.80
2022-11-27T05:05:10.556Z,18.80
2022-11-27T05:07:41.333Z,18.70
2022-11-27T05:10:11.363Z,18.70
2022-11-27T05:12:40.531Z,18.70
2022-11-27T05:15:10.960Z,18.70
2022-11-27T05:17:40.191Z,18.70
2022-11-27T05:20:10.568Z,18.70
2022-11-27T05:22:41.296Z,18.70
2022-11-27T05:25:11.203Z,18.70
2022-11-27T05:27:40.294Z,18.70
2022-11-27T05:30:10.411Z,18.70
2022-11-27T05:32:39.792Z,18.70
2022-11-27T05:35:09.592Z,18.70
2022-11-27T05:37:38.896Z,18.70
2022-11-27T05:40:10.682Z,18.70
2022-11-27T05:42:39.985Z,18.70
2022-11-27T05:45:10.029Z,18.70
2022-11-27T05:47:39.123Z,18.70
2022-11-27T05:50:09.580Z,18.60
2022-11-27T05:52:38.741Z,18.60
2022-11-27T05:55:10.655Z,18.60
2022-11-27T05:57:40.812Z,18.60
2022-11-27T06:00:11.514Z,18.60
2022-11-27T06:02:40.723Z,18.60
2022-11-27T06:05:10.752Z,18.60
2022-11-27T06:07:39.941Z,18.60
2022-11-27T06:10:11.463Z,18.60
2022-11-27T06:12:40.816Z,18.60
2022-11-27T06:15:10.410Z,18.60
2022-11-27T06:17:39.589Z,18.60
2022-11-27T06:20:09.838Z,18.60
2022-11-27T06:22:39.059Z,18.50
2022-11-27T06:25:10.392Z,18.50
2022-11-27T06:27:39.550Z,18.50
2022-11-27T06:30:10.432Z,18.50
2022-11-27T06:32:39.544Z,18.50
2022-11-27T06:35:09.539Z,18.50
2022-11-27T06:37:38.774Z,18.50
2022-11-27T06:40:10.720Z,18.50
2022-11-27T06:42:40.110Z,18.50
2022-11-27T06:45:10.433Z,18.50
2022-11-27T06:47:39.621Z,18.50
2022-11-27T06:50:09.748Z,18.40
2022-11-27T06:52:40.840Z,18.50
2022-11-27T06:55:11.833Z,18.50
2022-11-27T06:57:41.027Z,18.50
2022-11-27T07:00:11.170Z,18.50
2022-11-27T07:02:40.458Z,18.40
2022-11-27T07:05:10.402Z,18.40
2022-11-27T07:07:43.537Z,18.40
2022-11-27T07:10:14.655Z,18.40
2022-11-27T07:12:44.117Z,18.40
2022-11-27T07:15:13.461Z,18.40
2022-11-27T07:17:42.848Z,18.40
2022-11-27T07:20:12.719Z,18.40
2022-11-27T07:22:41.881Z,18.30
2022-11-27T07:25:11.616Z,18.30
2022-11-27T07:27:42.169Z,18.30
2022-11-27T07:30:12.173Z,18.30
2022-11-27T07:32:41.515Z,18.30
2022-11-27T07:35:11.570Z,18.30
2022-11-27T07:37:40.731Z,18.30
2022-11-27T07:40:10.696Z,18.30
2022-11-27T07:42:41.339Z,18.30
2022-11-27T07:45:12.979Z,18.30
2022-11-27T07:47:42.388Z,18.30
2022-11-27T07:50:12.779Z,18.30
2022-11-27T07:52:42.433Z,18.30
2022-11-27T07:55:12.135Z,18.30
2022-11-27T07:57:43.625Z,18.40
2022-11-27T08:00:13.610Z,18.40
2022-11-27T08:02:42.768Z,18.60
2022-11-27T08:05:13.264Z,18.70
2022-11-27T08:07:42.761Z,18.90
2022-11-27T08:10:12.152Z,19.00
2022-11-27T08:12:42.768Z,19.10
2022-11-27T08:15:13.115Z,19.10
2022-11-27T08:17:42.365Z,19.20
2022-11-27T08:20:12.007Z,19.20
2022-11-27T08:22:41.135Z,19.30
2022-11-27T08:25:11.100Z,19.30
2022-11-27T08:27:41.702Z,19.40
2022-11-27T08:30:12.067Z,19.40
2022-11-27T08:32:42.116Z,19.50
2022-11-27T08:35:12.567Z,19.50
2022-11-27T08:37:42.020Z,19.50
2022-11-27T08:40:12.229Z,19.60
2022-11-27T08:42:43.260Z,19.60
2022-11-27T08:45:12.750Z,19.70
2022-11-27T08:47:43.558Z,19.70
2022-11-27T08:50:12.720Z,19.70
2022-11-27T08:52:41.906Z,19.70
2022-11-27T08:55:11.530Z,19.70
2022-11-27T08:57:40.849Z,19.70
2022-11-27T09:00:13.245Z,19.80
2022-11-27T09:02:42.433Z,19.80
2022-11-27T09:05:12.190Z,19.80
2022-11-27T09:07:42.337Z,19.80
2022-11-27T09:10:11.944Z,19.80
2022-11-27T09:12:43.538Z,19.90
2022-11-27T09:15:15.001Z,19.90
2022-11-27T09:17:44.485Z,19.90
2022-11-27T09:20:16.194Z,20.00
2022-11-27T09:22:45.547Z,19.90
2022-11-27T09:25:14.763Z,20.00
2022-11-27T09:27:43.940Z,20.00
2022-11-27T09:30:15.721Z,20.00
2022-11-27T09:32:44.938Z,20.00
2022-11-27T09:35:14.978Z,20.00
2022-11-27T09:37:44.273Z,20.10
2022-11-27T09:40:17.865Z,20.10
2022-11-27T09:42:54.871Z,20.10
2022-11-27T09:45:28.473Z,20.10
2022-11-27T09:48:03.298Z,20.10
2022-11-27T09:50:37.101Z,20.20
2022-11-27T09:53:16.576Z,20.20
2022-11-27T09:55:50.723Z,20.20
2022-11-27T09:58:23.547Z,20.20
2022-11-27T10:00:54.185Z,20.20
2022-11-27T10:03:28.301Z,20.20
2022-11-27T10:06:16.088Z,20.20
2022-11-27T10:08:53.720Z,20.20
2022-11-27T10:11:30.600Z,20.20
2022-11-27T10:14:12.327Z,20.20
2022-11-27T10:16:46.849Z,20.30
2022-11-27T10:19:27.753Z,20.30
2022-11-27T10:22:01.217Z,20.30
2022-11-27T10:24:39.095Z,20.30
2022-11-27T10:27:19.277Z,20.30
2022-11-27T10:29:53.456Z,20.40
2022-11-27T10:32:56.583Z,20.40
2022-11-27T10:35:19.796Z,20.40
2022-11-27T10:37:52.767Z,20.40
2022-11-27T10:40:27.300Z,20.40
2022-11-27T10:43:04.762Z,20.50
2022-11-27T10:45:43.957Z,20.50
2022-11-27T10:48:15.481Z,20.50
2022-11-27T10:50:47.293Z,20.50
2022-11-27T10:53:23.022Z,20.60
2022-11-27T10:56:27.646Z,20.60
2022-11-27T10:59:00.949Z,20.60
2022-11-27T11:01:42.861Z,20.60
2022-11-27T11:04:36.565Z,20.60
2022-11-27T11:07:05.094Z,20.60
2022-11-27T11:09:36.010Z,20.60
2022-11-27T11:12:09.347Z,20.50
2022-11-27T11:14:39.084Z,20.60
2022-11-27T11:17:17.907Z,20.60
2022-11-27T11:19:48.532Z,20.60
2022-11-27T11:22:18.408Z,20.60
2022-11-27T11:24:49.248Z,20.60
2022-11-27T11:27:21.756Z,20.70
2022-11-27T11:29:52.841Z,20.70
2022-11-27T11:32:26.914Z,20.70
2022-11-27T11:35:01.439Z,20.80
2022-11-27T11:37:33.887Z,20.80
2022-11-27T11:40:08.176Z,20.80
2022-11-27T11:42:39.370Z,20.90
2022-11-27T11:45:19.503Z,20.90
2022-11-27T11:47:49.812Z,20.90
2022-11-27T11:50:31.451Z,20.90
2022-11-27T11:53:06.509Z,21.00
2022-11-27T11:55:40.498Z,21.00
2022-11-27T11:58:30.346Z,21.00
2022-11-27T12:01:31.134Z,21.00
2022-11-27T12:04:14.555Z,21.00
2022-11-27T12:06:56.896Z,21.00
2022-11-27T12:09:44.562Z,21.10
2022-11-27T12:12:25.357Z,21.10
2022-11-27T12:15:01.215Z,21.10
2022-11-27T12:17:44.183Z,21.10
2022-11-27T12:20:21.345Z,21.10
2022-11-27T12:23:18.398Z,21.10
2022-11-27T12:25:57.433Z,21.10
2022-11-27T12:28:41.438Z,21.10
2022-11-27T12:31:22.421Z,21.10
2022-11-27T12:34:02.326Z,21.10
2022-11-27T12:36:57.136Z,21.10
2022-11-27T12:39:34.229Z,21.10
2022-11-27T12:42:21.974Z,21.10
2022-11-27T12:44:59.180Z,21.10
2022-11-27T12:47:38.654Z,21.10
2022-11-27T12:50:17.746Z,21.10
2022-11-27T12:52:52.626Z,21.10
2022-11-27T12:55:30.486Z,21.10
2022-11-27T12:58:04.889Z,21.10
2022-11-27T13:00:42.463Z,21.10
2022-11-27T13:03:19.866Z,21.10
2022-11-27T13:05:54.502Z,21.10
2022-11-27T13:08:29.376Z,21.20
2022-11-27T13:11:05.614Z,21.20
2022-11-27T13:13:41.411Z,21.20
2022-11-27T13:16:15.822Z,21.20
2022-11-27T13:18:51.067Z,21.20
2022-11-27T13:21:24.096Z,21.20
2022-11-27T13:23:54.522Z,21.30
2022-11-27T13:26:30.345Z,21.30
2022-11-27T13:29:02.174Z,21.30
2022-11-27T13:31:39.304Z,21.30
2022-11-27T13:34:13.135Z,21.30
2022-11-27T13:36:44.876Z,21.30
2022-11-27T13:39:25.936Z,21.30
2022-11-27T13:42:07.431Z,21.30
2022-11-27T13:44:40.381Z,21.30
2022-11-27T13:47:14.472Z,21.30
2022-11-27T13:49:44.269Z,21.40
2022-11-27T13:52:16.454Z,21.40
2022-11-27T13:54:56.493Z,21.40
2022-11-27T13:57:28.857Z,21.40
2022-11-27T14:00:00.747Z,21.40
2022-11-27T14:02:42.747Z,21.40
2022-11-27T14:05:13.092Z,21.40
2022-11-27T14:07:45.941Z,21.40
2022-11-27T14:10:18.804Z,21.40
2022-11-27T14:12:56.872Z,21.40
2022-11-27T14:15:28.313Z,21.40
2022-11-27T14:18:08.717Z,21.40
2022-11-27T14:20:47.883Z,21.50
2022-11-27T14:23:30.374Z,21.40
2022-11-27T14:26:11.904Z,21.40
2022-11-27T14:28:49.820Z,21.50
2022-11-27T14:31:29.747Z,21.50
2022-11-27T14:34:15.257Z,21.50
2022-11-27T14:36:46.232Z,21.50
2022-11-27T14:39:23.820Z,21.50
2022-11-27T14:42:00.218Z,21.50
2022-11-27T14:44:30.961Z,21.60
2022-11-27T14:47:03.483Z,21.50
2022-11-27T14:49:34.280Z,21.50
2022-11-27T14:52:06.974Z,21.50
2022-11-27T14:54:39.156Z,21.50
2022-11-27T14:57:13.039Z,21.60
2022-11-27T14:59:43.824Z,21.50
2022-11-27T15:02:23.362Z,21.50
2022-11-27T15:05:04.358Z,21.50
2022-11-27T15:07:45.216Z,21.50
2022-11-27T15:10:33.308Z,21.50
2022-11-27T15:13:05.151Z,21.50
2022-11-27T15:15:44.592Z,21.50
2022-11-27T15:18:22.561Z,21.50
2022-11-27T15:20:52.801Z,21.50
2022-11-27T15:23:24.539Z,21.50
2022-11-27T15:26:11.112Z,21.60
2022-11-27T15:28:43.531Z,21.50
2022-11-27T15:31:30.788Z,21.50
2022-11-27T15:34:02.695Z,21.50
2022-11-27T15:36:40.860Z,21.50
2022-11-27T15:39:21.635Z,21.50
2022-11-27T15:41:59.182Z,21.50
2022-11-27T15:44:31.252Z,21.60
2022-11-27T15:47:03.813Z,21.60
2022-11-27T15:49:33.220Z,21.60
2022-11-27T15:52:02.343Z,21.60
2022-11-27T15:54:31.501Z,21.60
2022-11-27T15:57:00.733Z,21.60
2022-11-27T15:59:29.907Z,21.60
2022-11-27T16:01:59.088Z,21.60
2022-11-27T16:04:30.047Z,21.60
2022-11-27T16:06:59.307Z,21.60
2022-11-27T16:09:28.733Z,21.60
2022-11-27T16:11:58.309Z,21.60
2022-11-27T16:14:27.519Z,21.50
2022-11-27T16:16:56.764Z,21.50
2022-11-27T16:19:26.731Z,21.50
2022-11-27T16:21:57.906Z,21.50
2022-11-27T16:24:27.082Z,21.50
2022-11-27T16:26:56.231Z,21.50
2022-11-27T16:29:25.547Z,21.50
2022-11-27T16:31:54.939Z,21.50
2022-11-27T16:34:25.491Z,21.50
2022-11-27T16:36:56.539Z,21.50
2022-11-27T16:39:26.299Z,21.50
2022-11-27T16:41:55.554Z,21.50
2022-11-27T16:44:25.102Z,21.40
2022-11-27T16:46:55.641Z,21.30
2022-11-27T16:49:25.901Z,21.30
2022-11-27T16:51:56.480Z,21.30
2022-11-27T16:54:25.733Z,21.30
2022-11-27T16:56:56.461Z,21.30
2022-11-27T16:59:26.101Z,21.20
2022-11-27T17:01:55.658Z,21.20
2022-11-27T17:04:24.979Z,21.30
2022-11-27T17:06:54.446Z,21.20
2022-11-27T17:09:29.444Z,21.30
2022-11-27T17:11:58.695Z,21.30
2022-11-27T17:14:29.830Z,21.30
2022-11-27T17:16:59.899Z,21.30
2022-11-27T17:19:31.879Z,21.30
2022-11-27T17:22:01.627Z,21.30
2022-11-27T17:24:32.621Z,21.30
2022-11-27T17:27:02.154Z,21.30
2022-11-27T17:29:34.542Z,21.30
2022-11-27T17:32:07.453Z,21.30
2022-11-27T17:34:36.878Z,21.30
2022-11-27T17:37:06.524Z,21.30
2022-11-27T17:39:37.513Z,21.30
2022-11-27T17:42:12.652Z,21.30
2022-11-27T17:44:43.209Z,21.30
2022-11-27T17:47:12.587Z,21.20
2022-11-27T17:49:42.178Z,21.20
2022-11-27T17:52:11.797Z,21.20
2022-11-27T17:54:43.029Z,21.20
2022-11-27T17:57:12.519Z,21.20
2022-11-27T17:59:41.843Z,21.20
2022-11-27T18:02:13.202Z,21.30
2022-11-27T18:04:42.624Z,21.40
2022-11-27T18:07:12.242Z,21.40
2022-11-27T18:09:43.596Z,21.40
2022-11-27T18:12:13.166Z,21.50
2022-11-27T18:14:42.691Z,21.50
2022-11-27T18:17:14.793Z,21.50
2022-11-27T18:19:44.235Z,21.50
2022-11-27T18:22:14.615Z,21.50
2022-11-27T18:24:45.325Z,21.50
2022-11-27T18:27:16.070Z,21.40
2022-11-27T18:29:45.991Z,21.40
2022-11-27T18:32:17.080Z,21.40
2022-11-27T18:34:47.030Z,21.40
2022-11-27T18:37:16.262Z,21.40
2022-11-27T18:39:47.774Z,21.30
2022-11-27T18:42:17.163Z,21.30
2022-11-27T18:44:47.623Z,21.30
2022-11-27T18:47:17.614Z,21.30
2022-11-27T18:49:49.213Z,21.30
2022-11-27T18:52:18.754Z,21.30
2022-11-27T18:54:49.667Z,21.30
2022-11-27T18:57:19.884Z,21.30
2022-11-27T18:59:51.004Z,21.30
2022-11-27T19:02:20.759Z,21.30
2022-11-27T19:04:50.334Z,21.30
2022-11-27T19:07:19.744Z,21.30
2022-11-27T19:09:50.546Z,21.40
2022-11-27T19:12:19.780Z,21.40
2022-11-27T19:14:49.218Z,21.40
2022-11-27T19:17:18.736Z,21.50
2022-11-27T19:19:55.352Z,21.50
2022-11-27T19:22:24.706Z,21.50
2022-11-27T19:24:55.654Z,21.50
2022-11-27T19:27:25.373Z,21.60
2022-11-27T19:29:54.975Z,21.60
2022-11-27T19:32:25.298Z,21.60
2022-11-27T19:34:55.190Z,21.60
2022-11-27T19:37:34.041Z,21.60
2022-11-27T19:40:06.688Z,21.60
2022-11-27T19:42:36.242Z,21.60
2022-11-27T19:45:06.569Z,21.60
2022-11-27T19:47:36.316Z,21.60
2022-11-27T19:50:07.026Z,21.60
2022-11-27T19:52:36.371Z,21.60
2022-11-27T19:55:08.258Z,21.60
2022-11-27T19:57:39.535Z,21.60
2022-11-27T20:00:10.592Z,21.60
2022-11-27T20:02:48.322Z,21.60
2022-11-27T20:05:18.546Z,21.60
2022-11-27T20:07:48.822Z,21.60
2022-11-27T20:10:20.115Z,21.60
2022-11-27T20:12:49.634Z,21.60
2022-11-27T20:15:21.257Z,21.60
2022-11-27T20:17:51.170Z,21.60
2022-11-27T20:20:21.701Z,21.60
2022-11-27T20:22:51.080Z,21.60
2022-11-27T20:25:22.583Z,21.60
2022-11-27T20:27:51.887Z,21.60
2022-11-27T20:30:21.257Z,21.50
2022-11-27T20:32:50.505Z,21.40
2022-11-27T20:35:20.233Z,21.40
2022-11-27T20:37:49.989Z,21.30
2022-11-27T20:40:22.607Z,21.30
2022-11-27T20:42:54.302Z,21.20
2022-11-27T20:45:23.665Z,21.20
2022-11-27T20:47:52.845Z,21.20
2022-11-27T20:50:22.061Z,21.10
2022-11-27T20:52:51.395Z,21.10
2022-11-27T20:55:20.879Z,21.10
2022-11-27T20:57:54.595Z,21.10
2022-11-27T21:00:27.097Z,21.10
2022-11-27T21:02:56.323Z,21.00
2022-11-27T21:05:25.587Z,21.00
2022-11-27T21:07:57.488Z,21.00
2022-11-27T21:10:28.557Z,21.00
2022-11-27T21:12:57.810Z,20.90
2022-11-27T21:15:28.512Z,20.90
2022-11-27T21:17:58.377Z,20.90
2022-11-27T21:20:27.508Z,20.90
2022-11-27T21:22:57.057Z,20.90
2022-11-27T21:25:26.559Z,20.90
2022-11-27T21:27:58.147Z,20.80
2022-11-27T21:30:28.811Z,20.80
2022-11-27T21:32:58.448Z,20.80
2022-11-27T21:35:32.028Z,20.80
2022-11-27T21:38:02.948Z,20.70
2022-11-27T21:40:33.264Z,20.70
2022-11-27T21:43:02.562Z,20.70
2022-11-27T21:45:33.085Z,20.70
2022-11-27T21:48:02.273Z,20.60
2022-11-27T21:50:31.883Z,20.60
2022-11-27T21:53:01.071Z,20.60
2022-11-27T21:55:30.159Z,20.60
2022-11-27T21:57:59.615Z,20.60
2022-11-27T22:00:28.761Z,20.60
2022-11-27T22:02:59.278Z,20.50
2022-11-27T22:05:28.669Z,20.50
2022-11-27T22:07:57.777Z,20.50
2022-11-27T22:10:27.427Z,20.50
2022-11-27T22:12:56.548Z,20.50
2022-11-27T22:15:25.806Z,20.50
2022-11-27T22:17:55.061Z,20.40
2022-11-27T22:20:25.818Z,20.40
2022-11-27T22:22:55.772Z,20.40
2022-11-27T22:25:25.241Z,20.40
2022-11-27T22:27:54.584Z,20.40
2022-11-27T22:30:24.543Z,20.40
2022-11-27T22:32:54.521Z,20.40
2022-11-27T22:35:26.310Z,20.30
2022-11-27T22:37:55.943Z,20.30
2022-11-27T22:40:25.360Z,20.30
2022-11-27T22:42:55.288Z,20.30
2022-11-27T22:45:25.168Z,20.30
2022-11-27T22:47:54.675Z,20.20
2022-11-27T22:50:25.204Z,20.20
2022-11-27T22:52:58.173Z,20.20
2022-11-27T22:55:28.353Z,20.20
2022-11-27T22:57:57.492Z,20.20
2022-11-27T23:00:26.588Z,20.20
2022-11-27T23:02:55.795Z,20.20
2022-11-27T23:05:26.491Z,20.10
2022-11-27T23:07:55.740Z,20.10
2022-11-27T23:10:25.069Z,20.10
2022-11-27T23:12:54.252Z,20.10
2022-11-27T23:15:23.369Z,20.10
2022-11-27T23:17:52.772Z,20.10
2022-11-27T23:20:22.137Z,20.00
2022-11-27T23:22:52.902Z,20.00
2022-11-27T23:25:22.158Z,20.00
2022-11-27T23:27:51.266Z,20.00
2022-11-27T23:30:20.515Z,20.00
2022-11-27T23:32:49.695Z,20.00
2022-11-27T23:35:19.077Z,20.00
2022-11-27T23:37:48.328Z,20.00
2022-11-27T23:40:19.229Z,20.00
2022-11-27T23:42:48.404Z,20.00
2022-11-27T23:45:17.604Z,20.00
2022-11-27T23:47:47.661Z,19.90
2022-11-27T23:50:16.880Z,19.90
2022-11-27T23:52:46.246Z,19.90
2022-11-27T23:55:15.399Z,19.90
2022-11-27T23:57:45.976Z,19.90
